sensor_id;sensor_type;location;lat;lon;timestamp;P1;durP1;ratioP1;P2;durP2;ratioP2
75993;SDS011;64680;53.800;9.988;2023-11-21T00:01:57;16.23;;;8.27;;
75993;SDS011;64680;53.800;9.988;2023-11-21T00:04:23;14.75;;;7.30;;
75993;SDS011;64680;53.800;9.988;2023-11-21T00:06:49;16.45;;;8.40;;
75993;SDS011;64680;53.800;9.988;2023-11-21T00:09:15;18.85;;;8.70;;
75993;SDS011;64680;53.800;9.988;2023-11-21T00:11:42;19.05;;;9.45;;
75993;SDS011;64680;53.800;9.988;2023-11-21T00:14:09;20.02;;;9.50;;
75993;SDS011;64680;53.800;9.988;2023-11-21T00:16:35;19.17;;;8.48;;
75993;SDS011;64680;53.800;9.988;2023-11-21T00:19:01;21.15;;;8.73;;
75993;SDS011;64680;53.800;9.988;2023-11-21T00:21:27;19.50;;;8.70;;
75993;SDS011;64680;53.800;9.988;2023-11-21T00:23:52;17.55;;;8.18;;
75993;SDS011;64680;53.800;9.988;2023-11-21T00:26:18;18.27;;;8.90;;
75993;SDS011;64680;53.800;9.988;2023-11-21T00:28:44;12.70;;;5.68;;
75993;SDS011;64680;53.800;9.988;2023-11-21T00:31:10;11.10;;;5.90;;
75993;SDS011;64680;53.800;9.988;2023-11-21T00:33:36;10.38;;;5.50;;
75993;SDS011;64680;53.800;9.988;2023-11-21T00:36:01;11.73;;;5.32;;
75993;SDS011;64680;53.800;9.988;2023-11-21T00:38:27;11.63;;;5.65;;
75993;SDS011;64680;53.800;9.988;2023-11-21T00:40:52;11.90;;;6.05;;
75993;SDS011;64680;53.800;9.988;2023-11-21T00:43:21;11.00;;;6.30;;
75993;SDS011;64680;53.800;9.988;2023-11-21T00:45:48;9.95;;;5.53;;
75993;SDS011;64680;53.800;9.988;2023-11-21T00:48:14;12.70;;;5.82;;
75993;SDS011;64680;53.800;9.988;2023-11-21T00:50:40;11.05;;;5.40;;
75993;SDS011;64680;53.800;9.988;2023-11-21T00:53:05;13.13;;;6.30;;
75993;SDS011;64680;53.800;9.988;2023-11-21T00:55:32;16.42;;;6.45;;
75993;SDS011;64680;53.800;9.988;2023-11-21T00:57:58;12.35;;;5.93;;
75993;SDS011;64680;53.800;9.988;2023-11-21T01:00:24;12.68;;;6.28;;
75993;SDS011;64680;53.800;9.988;2023-11-21T01:02:50;9.45;;;6.03;;
75993;SDS011;64680;53.800;9.988;2023-11-21T01:05:16;9.60;;;4.38;;
75993;SDS011;64680;53.800;9.988;2023-11-21T01:07:42;9.07;;;5.30;;
75993;SDS011;64680;53.800;9.988;2023-11-21T01:10:08;10.13;;;5.60;;
75993;SDS011;64680;53.800;9.988;2023-11-21T01:12:35;8.55;;;4.35;;
75993;SDS011;64680;53.800;9.988;2023-11-21T01:15:02;8.93;;;4.82;;
75993;SDS011;64680;53.800;9.988;2023-11-21T01:17:32;7.25;;;4.28;;
75993;SDS011;64680;53.800;9.988;2023-11-21T01:19:59;9.43;;;4.13;;
75993;SDS011;64680;53.800;9.988;2023-11-21T01:22:25;8.05;;;4.28;;
75993;SDS011;64680;53.800;9.988;2023-11-21T01:24:54;9.60;;;4.60;;
75993;SDS011;64680;53.800;9.988;2023-11-21T01:27:19;6.97;;;4.05;;
75993;SDS011;64680;53.800;9.988;2023-11-21T01:29:45;8.77;;;4.45;;
75993;SDS011;64680;53.800;9.988;2023-11-21T01:32:11;8.63;;;4.47;;
75993;SDS011;64680;53.800;9.988;2023-11-21T01:34:36;6.22;;;3.78;;
75993;SDS011;64680;53.800;9.988;2023-11-21T01:37:02;7.32;;;4.30;;
75993;SDS011;64680;53.800;9.988;2023-11-21T01:39:30;7.28;;;3.13;;
75993;SDS011;64680;53.800;9.988;2023-11-21T01:41:56;8.80;;;4.22;;
75993;SDS011;64680;53.800;9.988;2023-11-21T01:44:26;6.82;;;3.38;;
75993;SDS011;64680;53.800;9.988;2023-11-21T01:46:51;9.50;;;3.90;;
75993;SDS011;64680;53.800;9.988;2023-11-21T01:49:18;6.75;;;4.55;;
75993;SDS011;64680;53.800;9.988;2023-11-21T01:51:45;5.47;;;3.13;;
75993;SDS011;64680;53.800;9.988;2023-11-21T01:54:14;8.68;;;3.65;;
75993;SDS011;64680;53.800;9.988;2023-11-21T01:56:42;7.30;;;3.85;;
75993;SDS011;64680;53.800;9.988;2023-11-21T01:59:09;7.07;;;3.67;;
75993;SDS011;64680;53.800;9.988;2023-11-21T02:01:36;7.68;;;3.60;;
75993;SDS011;64680;53.800;9.988;2023-11-21T02:04:02;7.80;;;3.90;;
75993;SDS011;64680;53.800;9.988;2023-11-21T02:06:28;9.32;;;4.20;;
75993;SDS011;64680;53.800;9.988;2023-11-21T02:08:56;11.55;;;5.38;;
75993;SDS011;64680;53.800;9.988;2023-11-21T02:11:21;10.20;;;4.93;;
75993;SDS011;64680;53.800;9.988;2023-11-21T02:13:47;10.32;;;5.05;;
75993;SDS011;64680;53.800;9.988;2023-11-21T02:16:15;11.60;;;5.75;;
75993;SDS011;64680;53.800;9.988;2023-11-21T02:18:40;9.00;;;5.25;;
75993;SDS011;64680;53.800;9.988;2023-11-21T02:21:06;10.20;;;5.30;;
75993;SDS011;64680;53.800;9.988;2023-11-21T02:23:32;11.20;;;5.13;;
75993;SDS011;64680;53.800;9.988;2023-11-21T02:25:58;10.65;;;5.15;;
75993;SDS011;64680;53.800;9.988;2023-11-21T02:28:24;10.10;;;5.05;;
75993;SDS011;64680;53.800;9.988;2023-11-21T02:30:53;11.10;;;5.75;;
75993;SDS011;64680;53.800;9.988;2023-11-21T02:33:21;11.43;;;5.53;;
75993;SDS011;64680;53.800;9.988;2023-11-21T02:35:47;11.40;;;5.70;;
75993;SDS011;64680;53.800;9.988;2023-11-21T02:38:13;10.52;;;5.03;;
75993;SDS011;64680;53.800;9.988;2023-11-21T02:40:40;11.02;;;5.13;;
75993;SDS011;64680;53.800;9.988;2023-11-21T02:43:06;10.93;;;5.70;;
75993;SDS011;64680;53.800;9.988;2023-11-21T02:45:32;10.95;;;5.57;;
75993;SDS011;64680;53.800;9.988;2023-11-21T02:47:58;11.45;;;5.78;;
75993;SDS011;64680;53.800;9.988;2023-11-21T02:50:24;10.55;;;6.07;;
75993;SDS011;64680;53.800;9.988;2023-11-21T02:52:49;11.40;;;4.90;;
75993;SDS011;64680;53.800;9.988;2023-11-21T02:55:16;10.05;;;5.07;;
75993;SDS011;64680;53.800;9.988;2023-11-21T02:57:41;16.58;;;6.38;;
75993;SDS011;64680;53.800;9.988;2023-11-21T03:00:07;11.85;;;5.97;;
75993;SDS011;64680;53.800;9.988;2023-11-21T03:02:34;12.20;;;5.60;;
75993;SDS011;64680;53.800;9.988;2023-11-21T03:05:04;9.85;;;5.93;;
75993;SDS011;64680;53.800;9.988;2023-11-21T03:07:31;11.50;;;5.88;;
75993;SDS011;64680;53.800;9.988;2023-11-21T03:09:56;11.13;;;5.30;;
75993;SDS011;64680;53.800;9.988;2023-11-21T03:12:22;12.27;;;5.95;;
75993;SDS011;64680;53.800;9.988;2023-11-21T03:14:48;11.38;;;6.00;;
75993;SDS011;64680;53.800;9.988;2023-11-21T03:17:13;10.60;;;5.00;;
75993;SDS011;64680;53.800;9.988;2023-11-21T03:19:41;10.93;;;5.78;;
75993;SDS011;64680;53.800;9.988;2023-11-21T03:22:06;9.45;;;5.07;;
75993;SDS011;64680;53.800;9.988;2023-11-21T03:24:33;10.52;;;5.15;;
75993;SDS011;64680;53.800;9.988;2023-11-21T03:26:59;10.35;;;4.90;;
75993;SDS011;64680;53.800;9.988;2023-11-21T03:29:25;11.27;;;5.78;;
75993;SDS011;64680;53.800;9.988;2023-11-21T03:31:51;9.80;;;5.47;;
75993;SDS011;64680;53.800;9.988;2023-11-21T03:34:22;7.45;;;4.13;;
75993;SDS011;64680;53.800;9.988;2023-11-21T03:36:50;9.25;;;4.68;;
75993;SDS011;64680;53.800;9.988;2023-11-21T03:39:16;9.85;;;4.38;;
75993;SDS011;64680;53.800;9.988;2023-11-21T03:41:41;10.50;;;5.05;;
75993;SDS011;64680;53.800;9.988;2023-11-21T03:44:07;11.07;;;5.40;;
75993;SDS011;64680;53.800;9.988;2023-11-21T03:46:33;9.27;;;4.65;;
75993;SDS011;64680;53.800;9.988;2023-11-21T03:48:59;8.88;;;4.70;;
75993;SDS011;64680;53.800;9.988;2023-11-21T03:51:24;9.15;;;4.85;;
75993;SDS011;64680;53.800;9.988;2023-11-21T03:53:50;9.68;;;4.90;;
75993;SDS011;64680;53.800;9.988;2023-11-21T03:56:16;9.88;;;5.50;;
75993;SDS011;64680;53.800;9.988;2023-11-21T03:58:41;10.57;;;5.10;;
75993;SDS011;64680;53.800;9.988;2023-11-21T04:01:07;10.38;;;5.43;;
75993;SDS011;64680;53.800;9.988;2023-11-21T04:03:32;8.93;;;5.30;;
75993;SDS011;64680;53.800;9.988;2023-11-21T04:05:58;11.93;;;5.38;;
75993;SDS011;64680;53.800;9.988;2023-11-21T04:08:24;12.23;;;5.20;;
75993;SDS011;64680;53.800;9.988;2023-11-21T04:10:52;10.07;;;5.10;;
75993;SDS011;64680;53.800;9.988;2023-11-21T04:13:18;11.40;;;5.43;;
75993;SDS011;64680;53.800;9.988;2023-11-21T04:15:44;12.45;;;5.68;;
75993;SDS011;64680;53.800;9.988;2023-11-21T04:18:09;10.57;;;5.15;;
75993;SDS011;64680;53.800;9.988;2023-11-21T04:20:35;10.95;;;5.50;;
75993;SDS011;64680;53.800;9.988;2023-11-21T04:23:01;12.70;;;5.55;;
75993;SDS011;64680;53.800;9.988;2023-11-21T04:25:26;11.93;;;5.78;;
75993;SDS011;64680;53.800;9.988;2023-11-21T04:27:53;10.90;;;5.22;;
75993;SDS011;64680;53.800;9.988;2023-11-21T04:30:19;12.02;;;5.75;;
75993;SDS011;64680;53.800;9.988;2023-11-21T04:32:45;10.77;;;5.03;;
75993;SDS011;64680;53.800;9.988;2023-11-21T04:35:11;11.93;;;5.53;;
75993;SDS011;64680;53.800;9.988;2023-11-21T04:37:37;10.02;;;5.18;;
75993;SDS011;64680;53.800;9.988;2023-11-21T04:40:03;9.63;;;5.90;;
75993;SDS011;64680;53.800;9.988;2023-11-21T04:42:35;11.43;;;5.53;;
75993;SDS011;64680;53.800;9.988;2023-11-21T04:45:01;10.00;;;5.13;;
75993;SDS011;64680;53.800;9.988;2023-11-21T04:47:30;9.48;;;4.47;;
75993;SDS011;64680;53.800;9.988;2023-11-21T04:49:55;10.43;;;5.00;;
75993;SDS011;64680;53.800;9.988;2023-11-21T04:52:21;8.85;;;4.95;;
75993;SDS011;64680;53.800;9.988;2023-11-21T04:54:46;9.45;;;4.82;;
75993;SDS011;64680;53.800;9.988;2023-11-21T04:57:13;10.88;;;5.32;;
75993;SDS011;64680;53.800;9.988;2023-11-21T04:59:39;8.95;;;5.05;;
75993;SDS011;64680;53.800;9.988;2023-11-21T05:02:04;8.65;;;4.72;;
75993;SDS011;64680;53.800;9.988;2023-11-21T05:04:30;9.18;;;5.35;;
75993;SDS011;64680;53.800;9.988;2023-11-21T05:06:55;10.02;;;5.03;;
75993;SDS011;64680;53.800;9.988;2023-11-21T05:09:21;9.65;;;5.57;;
75993;SDS011;64680;53.800;9.988;2023-11-21T05:11:47;12.38;;;6.38;;
75993;SDS011;64680;53.800;9.988;2023-11-21T05:14:13;11.30;;;5.85;;
75993;SDS011;64680;53.800;9.988;2023-11-21T05:16:39;11.93;;;5.40;;
75993;SDS011;64680;53.800;9.988;2023-11-21T05:19:04;11.68;;;6.00;;
75993;SDS011;64680;53.800;9.988;2023-11-21T05:21:31;10.90;;;5.75;;
75993;SDS011;64680;53.800;9.988;2023-11-21T05:23:57;12.20;;;6.05;;
75993;SDS011;64680;53.800;9.988;2023-11-21T05:26:23;12.27;;;5.70;;
75993;SDS011;64680;53.800;9.988;2023-11-21T05:28:49;12.85;;;5.93;;
75993;SDS011;64680;53.800;9.988;2023-11-21T05:31:15;12.20;;;6.20;;
75993;SDS011;64680;53.800;9.988;2023-11-21T05:33:40;12.85;;;5.35;;
75993;SDS011;64680;53.800;9.988;2023-11-21T05:36:07;16.60;;;6.45;;
75993;SDS011;64680;53.800;9.988;2023-11-21T05:38:33;15.10;;;6.35;;
75993;SDS011;64680;53.800;9.988;2023-11-21T05:40:59;12.50;;;6.32;;
75993;SDS011;64680;53.800;9.988;2023-11-21T05:43:24;15.60;;;6.97;;
75993;SDS011;64680;53.800;9.988;2023-11-21T05:45:50;14.05;;;7.47;;
75993;SDS011;64680;53.800;9.988;2023-11-21T05:48:15;13.30;;;5.82;;
75993;SDS011;64680;53.800;9.988;2023-11-21T05:50:41;12.20;;;6.05;;
75993;SDS011;64680;53.800;9.988;2023-11-21T05:53:06;12.60;;;6.25;;
75993;SDS011;64680;53.800;9.988;2023-11-21T05:55:32;12.48;;;5.60;;
75993;SDS011;64680;53.800;9.988;2023-11-21T05:57:58;13.77;;;5.75;;
75993;SDS011;64680;53.800;9.988;2023-11-21T06:00:23;12.02;;;6.13;;
75993;SDS011;64680;53.800;9.988;2023-11-21T06:02:51;10.63;;;5.30;;
75993;SDS011;64680;53.800;9.988;2023-11-21T06:05:18;11.20;;;5.70;;
75993;SDS011;64680;53.800;9.988;2023-11-21T06:07:45;12.55;;;5.53;;
75993;SDS011;64680;53.800;9.988;2023-11-21T06:10:11;12.52;;;5.50;;
75993;SDS011;64680;53.800;9.988;2023-11-21T06:12:39;12.43;;;6.10;;
75993;SDS011;64680;53.800;9.988;2023-11-21T06:15:07;10.23;;;4.70;;
75993;SDS011;64680;53.800;9.988;2023-11-21T06:17:35;10.45;;;5.53;;
75993;SDS011;64680;53.800;9.988;2023-11-21T06:20:04;10.38;;;5.18;;
75993;SDS011;64680;53.800;9.988;2023-11-21T06:22:34;9.95;;;5.07;;
75993;SDS011;64680;53.800;9.988;2023-11-21T06:25:01;11.05;;;5.53;;
75993;SDS011;64680;53.800;9.988;2023-11-21T06:27:28;11.15;;;5.25;;
75993;SDS011;64680;53.800;9.988;2023-11-21T06:29:54;12.48;;;5.97;;
75993;SDS011;64680;53.800;9.988;2023-11-21T06:32:20;9.68;;;4.70;;
75993;SDS011;64680;53.800;9.988;2023-11-21T06:34:47;11.93;;;6.03;;
75993;SDS011;64680;53.800;9.988;2023-11-21T06:37:14;10.65;;;5.10;;
75993;SDS011;64680;53.800;9.988;2023-11-21T06:39:40;12.57;;;6.35;;
75993;SDS011;64680;53.800;9.988;2023-11-21T06:42:06;11.20;;;5.20;;
75993;SDS011;64680;53.800;9.988;2023-11-21T06:44:32;9.65;;;5.07;;
75993;SDS011;64680;53.800;9.988;2023-11-21T06:46:58;9.40;;;4.47;;
75993;SDS011;64680;53.800;9.988;2023-11-21T06:49:24;9.05;;;4.30;;
75993;SDS011;64680;53.800;9.988;2023-11-21T06:51:50;9.68;;;4.97;;
75993;SDS011;64680;53.800;9.988;2023-11-21T06:54:16;10.50;;;4.60;;
75993;SDS011;64680;53.800;9.988;2023-11-21T06:56:41;8.63;;;4.32;;
75993;SDS011;64680;53.800;9.988;2023-11-21T06:59:07;8.45;;;4.45;;
75993;SDS011;64680;53.800;9.988;2023-11-21T07:01:35;6.97;;;4.10;;
75993;SDS011;64680;53.800;9.988;2023-11-21T07:04:04;9.43;;;5.07;;
75993;SDS011;64680;53.800;9.988;2023-11-21T07:06:31;8.88;;;4.15;;
75993;SDS011;64680;53.800;9.988;2023-11-21T07:08:57;8.70;;;4.65;;
75993;SDS011;64680;53.800;9.988;2023-11-21T07:11:23;10.20;;;4.40;;
75993;SDS011;64680;53.800;9.988;2023-11-21T07:13:49;8.63;;;4.43;;
75993;SDS011;64680;53.800;9.988;2023-11-21T07:16:14;12.20;;;4.85;;
75993;SDS011;64680;53.800;9.988;2023-11-21T07:18:40;8.75;;;4.93;;
75993;SDS011;64680;53.800;9.988;2023-11-21T07:21:06;7.90;;;4.40;;
75993;SDS011;64680;53.800;9.988;2023-11-21T07:23:33;8.13;;;4.40;;
75993;SDS011;64680;53.800;9.988;2023-11-21T07:25:59;7.93;;;3.60;;
75993;SDS011;64680;53.800;9.988;2023-11-21T07:28:24;10.38;;;4.63;;
75993;SDS011;64680;53.800;9.988;2023-11-21T07:30:50;8.52;;;4.35;;
75993;SDS011;64680;53.800;9.988;2023-11-21T07:33:16;7.75;;;3.75;;
75993;SDS011;64680;53.800;9.988;2023-11-21T07:35:42;6.57;;;3.78;;
75993;SDS011;64680;53.800;9.988;2023-11-21T07:38:08;7.35;;;4.35;;
75993;SDS011;64680;53.800;9.988;2023-11-21T07:40:34;8.30;;;4.20;;
75993;SDS011;64680;53.800;9.988;2023-11-21T07:42:59;8.52;;;4.15;;
75993;SDS011;64680;53.800;9.988;2023-11-21T07:45:25;7.55;;;3.58;;
75993;SDS011;64680;53.800;9.988;2023-11-21T07:47:53;8.65;;;3.10;;
75993;SDS011;64680;53.800;9.988;2023-11-21T07:50:19;6.82;;;3.15;;
75993;SDS011;64680;53.800;9.988;2023-11-21T07:52:45;5.43;;;3.00;;
75993;SDS011;64680;53.800;9.988;2023-11-21T07:55:11;5.70;;;2.80;;
75993;SDS011;64680;53.800;9.988;2023-11-21T07:57:37;6.15;;;3.00;;
75993;SDS011;64680;53.800;9.988;2023-11-21T08:00:03;7.82;;;3.15;;
75993;SDS011;64680;53.800;9.988;2023-11-21T08:02:34;5.93;;;2.63;;
75993;SDS011;64680;53.800;9.988;2023-11-21T08:04:59;7.20;;;2.95;;
75993;SDS011;64680;53.800;9.988;2023-11-21T08:07:25;4.82;;;2.83;;
75993;SDS011;64680;53.800;9.988;2023-11-21T08:09:51;4.75;;;2.97;;
75993;SDS011;64680;53.800;9.988;2023-11-21T08:12:17;7.03;;;2.80;;
75993;SDS011;64680;53.800;9.988;2023-11-21T08:14:43;4.63;;;2.33;;
75993;SDS011;64680;53.800;9.988;2023-11-21T08:17:09;4.63;;;2.45;;
75993;SDS011;64680;53.800;9.988;2023-11-21T08:19:35;6.15;;;3.13;;
75993;SDS011;64680;53.800;9.988;2023-11-21T08:22:02;5.15;;;2.92;;
75993;SDS011;64680;53.800;9.988;2023-11-21T08:24:28;4.55;;;2.33;;
75993;SDS011;64680;53.800;9.988;2023-11-21T08:26:54;5.32;;;2.65;;
75993;SDS011;64680;53.800;9.988;2023-11-21T08:29:19;3.65;;;2.05;;
75993;SDS011;64680;53.800;9.988;2023-11-21T08:31:45;5.78;;;2.40;;
75993;SDS011;64680;53.800;9.988;2023-11-21T08:34:12;4.15;;;2.50;;
75993;SDS011;64680;53.800;9.988;2023-11-21T08:36:41;3.80;;;2.35;;
75993;SDS011;64680;53.800;9.988;2023-11-21T08:39:08;4.03;;;2.42;;
75993;SDS011;64680;53.800;9.988;2023-11-21T08:41:34;4.13;;;2.33;;
75993;SDS011;64680;53.800;9.988;2023-11-21T08:44:01;6.30;;;2.80;;
75993;SDS011;64680;53.800;9.988;2023-11-21T08:46:27;5.43;;;2.75;;
75993;SDS011;64680;53.800;9.988;2023-11-21T08:48:53;4.55;;;2.92;;
75993;SDS011;64680;53.800;9.988;2023-11-21T08:51:18;4.07;;;2.63;;
75993;SDS011;64680;53.800;9.988;2023-11-21T08:53:44;4.32;;;2.45;;
75993;SDS011;64680;53.800;9.988;2023-11-21T08:56:13;5.78;;;2.72;;
75993;SDS011;64680;53.800;9.988;2023-11-21T08:58:41;6.03;;;3.10;;
75993;SDS011;64680;53.800;9.988;2023-11-21T09:01:07;4.20;;;2.42;;
75993;SDS011;64680;53.800;9.988;2023-11-21T09:03:32;4.57;;;2.17;;
75993;SDS011;64680;53.800;9.988;2023-11-21T09:05:59;5.60;;;2.60;;
75993;SDS011;64680;53.800;9.988;2023-11-21T09:08:25;4.35;;;2.33;;
75993;SDS011;64680;53.800;9.988;2023-11-21T09:10:50;6.00;;;3.33;;
75993;SDS011;64680;53.800;9.988;2023-11-21T09:13:17;3.45;;;2.05;;
75993;SDS011;64680;53.800;9.988;2023-11-21T09:15:43;4.00;;;2.35;;
75993;SDS011;64680;53.800;9.988;2023-11-21T09:18:11;3.55;;;1.77;;
75993;SDS011;64680;53.800;9.988;2023-11-21T09:20:40;4.82;;;2.00;;
75993;SDS011;64680;53.800;9.988;2023-11-21T09:23:07;4.28;;;2.00;;
75993;SDS011;64680;53.800;9.988;2023-11-21T09:25:33;4.78;;;2.35;;
75993;SDS011;64680;53.800;9.988;2023-11-21T09:27:58;4.95;;;3.20;;
75993;SDS011;64680;53.800;9.988;2023-11-21T09:30:24;3.60;;;2.00;;
75993;SDS011;64680;53.800;9.988;2023-11-21T09:32:50;4.22;;;2.00;;
75993;SDS011;64680;53.800;9.988;2023-11-21T09:35:16;4.13;;;2.08;;
75993;SDS011;64680;53.800;9.988;2023-11-21T09:37:45;4.75;;;2.20;;
75993;SDS011;64680;53.800;9.988;2023-11-21T09:40:11;3.28;;;2.03;;
75993;SDS011;64680;53.800;9.988;2023-11-21T09:42:49;3.47;;;1.80;;
75993;SDS011;64680;53.800;9.988;2023-11-21T09:45:25;2.25;;;1.40;;
75993;SDS011;64680;53.800;9.988;2023-11-21T09:47:56;4.60;;;1.58;;
75993;SDS011;64680;53.800;9.988;2023-11-21T09:50:22;2.63;;;1.63;;
75993;SDS011;64680;53.800;9.988;2023-11-21T09:52:51;2.38;;;1.40;;
75993;SDS011;64680;53.800;9.988;2023-11-21T09:55:27;4.20;;;1.73;;
75993;SDS011;64680;53.800;9.988;2023-11-21T09:58:01;3.05;;;2.20;;
75993;SDS011;64680;53.800;9.988;2023-11-21T10:00:28;4.00;;;2.13;;
75993;SDS011;64680;53.800;9.988;2023-11-21T10:02:58;3.63;;;2.03;;
75993;SDS011;64680;53.800;9.988;2023-11-21T10:05:24;3.95;;;2.13;;
75993;SDS011;64680;53.800;9.988;2023-11-21T10:07:50;3.45;;;1.90;;
75993;SDS011;64680;53.800;9.988;2023-11-21T10:10:17;3.65;;;1.90;;
75993;SDS011;64680;53.800;9.988;2023-11-21T10:12:46;3.70;;;1.90;;
75993;SDS011;64680;53.800;9.988;2023-11-21T10:15:23;4.18;;;1.73;;
75993;SDS011;64680;53.800;9.988;2023-11-21T10:17:53;3.35;;;2.17;;
75993;SDS011;64680;53.800;9.988;2023-11-21T10:20:20;3.05;;;1.75;;
75993;SDS011;64680;53.800;9.988;2023-11-21T10:22:47;2.95;;;2.10;;
75993;SDS011;64680;53.800;9.988;2023-11-21T10:25:13;3.90;;;1.70;;
75993;SDS011;64680;53.800;9.988;2023-11-21T10:27:43;2.92;;;1.73;;
75993;SDS011;64680;53.800;9.988;2023-11-21T10:30:13;3.67;;;2.10;;
75993;SDS011;64680;53.800;9.988;2023-11-21T10:32:41;3.47;;;1.85;;
75993;SDS011;64680;53.800;9.988;2023-11-21T10:35:08;3.25;;;1.75;;
75993;SDS011;64680;53.800;9.988;2023-11-21T10:37:37;3.50;;;1.98;;
75993;SDS011;64680;53.800;9.988;2023-11-21T10:40:08;5.57;;;2.40;;
75993;SDS011;64680;53.800;9.988;2023-11-21T10:42:37;3.40;;;2.20;;
75993;SDS011;64680;53.800;9.988;2023-11-21T10:45:04;2.75;;;1.98;;
75993;SDS011;64680;53.800;9.988;2023-11-21T10:47:37;3.50;;;1.88;;
75993;SDS011;64680;53.800;9.988;2023-11-21T10:50:04;3.92;;;2.25;;
75993;SDS011;64680;53.800;9.988;2023-11-21T10:52:30;2.90;;;2.10;;
75993;SDS011;64680;53.800;9.988;2023-11-21T10:54:56;3.38;;;2.17;;
75993;SDS011;64680;53.800;9.988;2023-11-21T10:57:24;3.28;;;2.25;;
75993;SDS011;64680;53.800;9.988;2023-11-21T10:59:50;4.32;;;2.50;;
75993;SDS011;64680;53.800;9.988;2023-11-21T11:02:23;3.22;;;1.95;;
75993;SDS011;64680;53.800;9.988;2023-11-21T11:04:52;3.90;;;2.15;;
75993;SDS011;64680;53.800;9.988;2023-11-21T11:07:25;5.38;;;1.88;;
75993;SDS011;64680;53.800;9.988;2023-11-21T11:09:53;5.38;;;2.92;;
75993;SDS011;64680;53.800;9.988;2023-11-21T11:12:19;3.05;;;2.00;;
75993;SDS011;64680;53.800;9.988;2023-11-21T11:14:45;4.32;;;1.80;;
75993;SDS011;64680;53.800;9.988;2023-11-21T11:17:12;4.35;;;2.00;;
75993;SDS011;64680;53.800;9.988;2023-11-21T11:19:39;2.80;;;1.70;;
75993;SDS011;64680;53.800;9.988;2023-11-21T11:22:16;4.00;;;1.65;;
75993;SDS011;64680;53.800;9.988;2023-11-21T11:25:20;2.20;;;1.30;;
75993;SDS011;64680;53.800;9.988;2023-11-21T11:28:12;4.07;;;1.60;;
75993;SDS011;64680;53.800;9.988;2023-11-21T11:36:10;3.17;;;1.58;;
75993;SDS011;64680;53.800;9.988;2023-11-21T11:38:57;2.65;;;1.50;;
75993;SDS011;64680;53.800;9.988;2023-11-21T11:41:24;4.45;;;1.63;;
75993;SDS011;64680;53.800;9.988;2023-11-21T11:43:57;3.47;;;1.90;;
75993;SDS011;64680;53.800;9.988;2023-11-21T11:46:42;2.97;;;1.67;;
75993;SDS011;64680;53.800;9.988;2023-11-21T11:49:24;3.15;;;1.90;;
75993;SDS011;64680;53.800;9.988;2023-11-21T11:55:00;2.35;;;1.40;;
75993;SDS011;64680;53.800;9.988;2023-11-21T11:57:29;3.00;;;1.50;;
75993;SDS011;64680;53.800;9.988;2023-11-21T12:00:12;2.63;;;1.40;;
75993;SDS011;64680;53.800;9.988;2023-11-21T12:02:44;2.25;;;1.10;;
75993;SDS011;64680;53.800;9.988;2023-11-21T12:05:12;1.48;;;0.95;;
75993;SDS011;64680;53.800;9.988;2023-11-21T12:07:46;2.90;;;1.30;;
75993;SDS011;64680;53.800;9.988;2023-11-21T12:12:45;2.65;;;1.60;;
75993;SDS011;64680;53.800;9.988;2023-11-21T12:15:11;3.42;;;2.00;;
75993;SDS011;64680;53.800;9.988;2023-11-21T12:17:38;2.58;;;1.83;;
75993;SDS011;64680;53.800;9.988;2023-11-21T12:20:04;3.33;;;2.00;;
75993;SDS011;64680;53.800;9.988;2023-11-21T12:22:39;3.90;;;2.03;;
75993;SDS011;64680;53.800;9.988;2023-11-21T12:25:09;5.15;;;2.60;;
75993;SDS011;64680;53.800;9.988;2023-11-21T12:27:34;3.40;;;2.20;;
75993;SDS011;64680;53.800;9.988;2023-11-21T12:30:00;4.00;;;1.95;;
75993;SDS011;64680;53.800;9.988;2023-11-21T12:32:26;3.60;;;2.30;;
75993;SDS011;64680;53.800;9.988;2023-11-21T12:34:51;4.50;;;1.92;;
75993;SDS011;64680;53.800;9.988;2023-11-21T12:37:17;3.22;;;1.80;;
75993;SDS011;64680;53.800;9.988;2023-11-21T12:39:43;3.72;;;1.90;;
75993;SDS011;64680;53.800;9.988;2023-11-21T12:42:09;3.58;;;1.83;;
75993;SDS011;64680;53.800;9.988;2023-11-21T12:44:35;2.67;;;1.95;;
75993;SDS011;64680;53.800;9.988;2023-11-21T12:47:02;3.47;;;1.90;;
75993;SDS011;64680;53.800;9.988;2023-11-21T12:49:28;3.50;;;2.13;;
75993;SDS011;64680;53.800;9.988;2023-11-21T12:51:54;3.22;;;1.80;;
75993;SDS011;64680;53.800;9.988;2023-11-21T12:54:19;3.13;;;2.00;;
75993;SDS011;64680;53.800;9.988;2023-11-21T12:56:46;4.63;;;2.00;;
75993;SDS011;64680;53.800;9.988;2023-11-21T12:59:14;3.03;;;1.67;;
75993;SDS011;64680;53.800;9.988;2023-11-21T13:01:42;2.30;;;1.80;;
75993;SDS011;64680;53.800;9.988;2023-11-21T13:04:08;2.63;;;1.48;;
75993;SDS011;64680;53.800;9.988;2023-11-21T13:06:35;3.35;;;1.92;;
75993;SDS011;64680;53.800;9.988;2023-11-21T13:09:06;5.80;;;2.30;;
75993;SDS011;64680;53.800;9.988;2023-11-21T13:11:35;3.03;;;2.15;;
75993;SDS011;64680;53.800;9.988;2023-11-21T13:14:02;4.28;;;1.85;;
75993;SDS011;64680;53.800;9.988;2023-11-21T13:16:28;3.28;;;1.65;;
75993;SDS011;64680;53.800;9.988;2023-11-21T13:18:55;2.53;;;1.50;;
75993;SDS011;64680;53.800;9.988;2023-11-21T13:21:20;4.30;;;1.65;;
75993;SDS011;64680;53.800;9.988;2023-11-21T13:23:47;4.10;;;2.20;;
75993;SDS011;64680;53.800;9.988;2023-11-21T13:26:16;3.00;;;1.77;;
75993;SDS011;64680;53.800;9.988;2023-11-21T13:28:41;2.15;;;1.35;;
75993;SDS011;64680;53.800;9.988;2023-11-21T13:31:11;2.17;;;1.52;;
75993;SDS011;64680;53.800;9.988;2023-11-21T13:33:46;3.03;;;1.52;;
75993;SDS011;64680;53.800;9.988;2023-11-21T13:36:20;2.85;;;1.88;;
75993;SDS011;64680;53.800;9.988;2023-11-21T13:38:49;4.45;;;1.85;;
75993;SDS011;64680;53.800;9.988;2023-11-21T13:43:43;3.30;;;1.90;;
75993;SDS011;64680;53.800;9.988;2023-11-21T13:46:13;3.85;;;2.17;;
75993;SDS011;64680;53.800;9.988;2023-11-21T13:48:42;3.42;;;2.10;;
75993;SDS011;64680;53.800;9.988;2023-11-21T13:51:10;3.25;;;2.00;;
75993;SDS011;64680;53.800;9.988;2023-11-21T13:53:45;4.25;;;2.20;;
75993;SDS011;64680;53.800;9.988;2023-11-21T13:56:18;3.35;;;2.00;;
75993;SDS011;64680;53.800;9.988;2023-11-21T13:58:53;4.68;;;2.60;;
75993;SDS011;64680;53.800;9.988;2023-11-21T14:01:19;3.97;;;2.15;;
75993;SDS011;64680;53.800;9.988;2023-11-21T14:03:56;4.07;;;1.95;;
75993;SDS011;64680;53.800;9.988;2023-11-21T14:06:27;4.13;;;2.38;;
75993;SDS011;64680;53.800;9.988;2023-11-21T14:08:59;4.15;;;1.90;;
75993;SDS011;64680;53.800;9.988;2023-11-21T14:11:31;4.90;;;2.08;;
75993;SDS011;64680;53.800;9.988;2023-11-21T14:13:57;6.30;;;2.28;;
75993;SDS011;64680;53.800;9.988;2023-11-21T14:16:24;3.70;;;1.80;;
75993;SDS011;64680;53.800;9.988;2023-11-21T14:18:50;5.40;;;2.20;;
75993;SDS011;64680;53.800;9.988;2023-11-21T14:21:22;3.50;;;1.70;;
75993;SDS011;64680;53.800;9.988;2023-11-21T14:23:48;3.92;;;1.60;;
75993;SDS011;64680;53.800;9.988;2023-11-21T14:26:14;3.20;;;1.92;;
75993;SDS011;64680;53.800;9.988;2023-11-21T14:28:41;3.67;;;2.22;;
75993;SDS011;64680;53.800;9.988;2023-11-21T14:31:08;3.80;;;2.15;;
75993;SDS011;64680;53.800;9.988;2023-11-21T14:33:38;3.75;;;2.33;;
75993;SDS011;64680;53.800;9.988;2023-11-21T14:36:04;4.90;;;2.28;;
75993;SDS011;64680;53.800;9.988;2023-11-21T14:38:33;3.53;;;2.00;;
75993;SDS011;64680;53.800;9.988;2023-11-21T14:40:58;3.17;;;2.20;;
75993;SDS011;64680;53.800;9.988;2023-11-21T14:43:24;3.78;;;1.98;;
75993;SDS011;64680;53.800;9.988;2023-11-21T14:45:51;3.30;;;1.73;;
75993;SDS011;64680;53.800;9.988;2023-11-21T14:48:16;3.67;;;2.30;;
75993;SDS011;64680;53.800;9.988;2023-11-21T14:50:53;2.53;;;1.65;;
75993;SDS011;64680;53.800;9.988;2023-11-21T14:56:08;4.18;;;2.20;;
75993;SDS011;64680;53.800;9.988;2023-11-21T14:58:46;3.55;;;2.00;;
75993;SDS011;64680;53.800;9.988;2023-11-21T15:01:11;4.63;;;2.30;;